Time;durP1;ratioP1;P1;durP2;ratioP2;P2;SDS_P1;SDS_P2;PMS_P1;PMS_P2;Temp;Humidity;BMP_temperature;BMP_pressure;BME280_temperature;BME280_humidity;BME280_pressure;Samples;Min_cycle;Max_cycle;Signal;HPM_P1;HPM_P2
2023/04/29 03:01:54;;;;;;;0.35;0.08;;;15.10;94.00;;;;;;5579329;23;94287;-74
2023/04/29 03:04:19;;;;;;;1.10;0.10;;;15.10;93.60;;;;;;4900714;28;94858;-75
2023/04/29 03:06:45;;;;;;;0.52;0.10;;;15.10;94.10;;;;;;4901613;28;93698;-72
2023/04/29 03:09:12;;;;;;;1.73;0.10;;;15.10;94.20;;;;;;4902871;28;92578;-76
2023/04/29 03:11:38;;;;;;;1.10;0.20;;;15.10;94.20;;;;;;4902400;28;93300;-76
2023/04/29 03:14:03;;;;;;;1.58;0.10;;;15.10;93.80;;;;;;4905989;28;92721;-75
2023/04/29 03:16:30;;;;;;;0.88;0.10;;;15.00;94.10;;;;;;4907262;28;92242;-76
2023/04/29 03:18:56;;;;;;;1.85;0.10;;;15.10;93.80;;;;;;4900657;28;92271;-74
2023/04/29 03:21:24;;;;;;;1.08;0.03;;;15.10;93.50;;;;;;4884479;28;92183;-74
2023/04/29 03:23:49;;;;;;;2.22;0.10;;;15.10;93.20;;;;;;4901430;28;92710;-75
2023/04/29 03:26:15;;;;;;;4.18;0.10;;;15.10;93.10;;;;;;4900336;28;92548;-74
2023/04/29 03:28:41;;;;;;;1.20;0.03;;;15.10;93.10;;;;;;4901429;28;92981;-74
2023/04/29 03:31:07;;;;;;;0.88;0.10;;;15.10;93.20;;;;;;4902076;28;92733;-74
2023/04/29 03:33:33;;;;;;;1.15;0.00;;;15.20;93.10;;;;;;4891832;28;93237;-71
2023/04/29 03:35:58;;;;;;;0.88;0.10;;;15.20;93.10;;;;;;4901689;28;92972;-71
2023/04/29 03:38:27;;;;;;;1.02;0.10;;;15.10;93.20;;;;;;4900832;28;92558;-71
2023/04/29 03:40:52;;;;;;;0.28;0.00;;;15.10;93.30;;;;;;4901488;28;92207;-74
2023/04/29 03:43:18;;;;;;;1.45;0.08;;;15.10;93.30;;;;;;4900859;28;93069;-74
2023/04/29 03:45:44;;;;;;;0.40;0.10;;;15.20;93.20;;;;;;4908270;28;92845;-74
2023/04/29 03:48:11;;;;;;;0.93;0.10;;;15.20;93.40;;;;;;4902099;28;92815;-72
2023/04/29 03:50:36;;;;;;;2.35;0.10;;;15.20;93.40;;;;;;4897890;28;92260;-74
2023/04/29 03:53:02;;;;;;;0.50;0.10;;;15.10;93.50;;;;;;4900007;28;94053;-75
2023/04/29 03:55:28;;;;;;;0.60;0.10;;;15.10;93.80;;;;;;4909250;28;93130;-73
2023/04/29 03:57:54;;;;;;;0.40;0.00;;;15.10;93.80;;;;;;4898303;28;92420;-73
2023/04/29 04:00:20;;;;;;;0.80;0.10;;;15.10;94.00;;;;;;4901823;28;92647;-74
2023/04/29 04:02:46;;;;;;;0.45;0.05;;;15.00;93.90;;;;;;4889046;28;93174;-75
2023/04/29 04:05:11;;;;;;;2.00;0.10;;;15.00;93.80;;;;;;4884491;28;92700;-75
2023/04/29 04:07:37;;;;;;;0.75;0.03;;;15.00;93.60;;;;;;4886732;28;92129;-72
2023/04/29 04:10:03;;;;;;;0.88;0.08;;;15.10;93.30;;;;;;4890654;28;91459;-74
2023/04/29 04:12:28;;;;;;;0.63;0.00;;;15.10;93.30;;;;;;4882716;28;93538;-75
2023/04/29 04:14:54;;;;;;;1.17;0.10;;;15.00;93.40;;;;;;4879740;28;92922;-72
2023/04/29 04:17:20;;;;;;;1.50;0.00;;;15.10;93.30;;;;;;4884139;28;93164;-74
2023/04/29 04:19:45;;;;;;;0.50;0.10;;;15.00;92.80;;;;;;4880089;28;92436;-74
2023/04/29 04:22:11;;;;;;;0.28;0.00;;;15.10;92.60;;;;;;4881102;28;93188;-72
2023/04/29 04:24:37;;;;;;;0.35;0.00;;;15.10;92.90;;;;;;4872455;28;92827;-75
2023/04/29 04:27:03;;;;;;;0.98;0.10;;;15.10;92.80;;;;;;4879115;28;92455;-76
2023/04/29 04:29:28;;;;;;;0.30;0.00;;;15.10;92.50;;;;;;4881818;28;92423;-75
2023/04/29 04:31:54;;;;;;;1.17;0.10;;;15.10;92.30;;;;;;4881225;28;93531;-76
2023/04/29 04:34:20;;;;;;;0.35;0.00;;;15.00;92.40;;;;;;4882118;28;93338;-75
2023/04/29 04:36:45;;;;;;;0.52;0.00;;;15.00;92.40;;;;;;4879991;28;92077;-74
2023/04/29 04:39:11;;;;;;;0.88;0.00;;;15.10;92.50;;;;;;4880874;28;92235;-75
2023/04/29 04:41:37;;;;;;;0.47;0.03;;;15.00;92.50;;;;;;4878766;28;94143;-74
2023/04/29 04:44:04;;;;;;;0.60;0.00;;;15.00;92.40;;;;;;4881174;28;93322;-74
2023/04/29 04:46:29;;;;;;;2.05;0.10;;;15.00;92.30;;;;;;4882377;28;92477;-74
2023/04/29 04:48:55;;;;;;;0.52;0.10;;;15.00;92.20;;;;;;4899003;28;93659;-71
2023/04/29 04:51:21;;;;;;;0.50;0.10;;;15.00;91.80;;;;;;4888347;28;92744;-72
2023/04/29 04:53:47;;;;;;;0.57;0.10;;;15.10;91.70;;;;;;4885024;28;92862;-72
2023/04/29 04:56:13;;;;;;;0.93;0.08;;;15.10;91.70;;;;;;4883685;28;92123;-72
2023/04/29 04:58:38;;;;;;;1.30;0.10;;;15.20;91.50;;;;;;4883381;28;91527;-72
2023/04/29 05:01:04;;;;;;;1.08;0.40;;;15.20;91.60;;;;;;4882875;28;93329;-73
2023/04/29 05:03:30;;;;;;;1.52;0.10;;;15.20;91.20;;;;;;4885835;28;92710;-72
2023/04/29 05:05:57;;;;;;;0.60;0.10;;;15.30;91.10;;;;;;4888467;28;93310;-73
2023/04/29 05:08:23;;;;;;;1.85;0.10;;;15.40;90.90;;;;;;4883412;28;92716;-73
2023/04/29 05:10:49;;;;;;;0.70;0.10;;;15.40;90.50;;;;;;4884053;28;94608;-73
2023/04/29 05:13:15;;;;;;;0.80;0.10;;;15.50;90.50;;;;;;4878225;28;92807;-73
2023/04/29 05:15:41;;;;;;;0.80;0.10;;;15.50;90.50;;;;;;4881110;28;92144;-73
2023/04/29 05:18:07;;;;;;;0.65;0.10;;;15.50;90.50;;;;;;4881066;28;92764;-73
2023/04/29 05:20:32;;;;;;;3.58;0.17;;;15.50;90.40;;;;;;4876567;28;92601;-72
2023/04/29 05:22:58;;;;;;;0.75;0.20;;;15.60;90.30;;;;;;4881376;28;92803;-72
2023/04/29 05:25:24;;;;;;;0.90;0.10;;;15.60;90.00;;;;;;4877801;28;92309;-73
2023/04/29 05:27:50;;;;;;;0.40;0.10;;;15.60;90.20;;;;;;4868984;28;92249;-72
2023/04/29 05:30:17;;;;;;;0.80;0.10;;;15.60;90.10;;;;;;4868087;28;93785;-72
2023/04/29 05:32:44;;;;;;;0.65;0.10;;;15.70;90.30;;;;;;4872350;28;93852;-72
2023/04/29 05:35:10;;;;;;;0.90;0.10;;;15.80;90.10;;;;;;4867045;28;93882;-73
2023/04/29 05:37:36;;;;;;;1.13;0.10;;;16.20;89.40;;;;;;4870222;28;93071;-73
2023/04/29 05:40:02;;;;;;;1.75;0.10;;;17.00;86.90;;;;;;4872757;28;93081;-75
2023/04/29 05:42:28;;;;;;;1.05;0.20;;;17.30;84.50;;;;;;4868641;28;93661;-76
2023/04/29 05:44:54;;;;;;;4.53;0.13;;;17.40;83.60;;;;;;4861788;28;94327;-73
2023/04/29 05:47:20;;;;;;;0.75;0.20;;;17.40;83.20;;;;;;4863054;28;91860;-74
2023/04/29 05:49:46;;;;;;;1.35;0.10;;;17.30;83.40;;;;;;4848295;28;95461;-75
2023/04/29 05:52:12;;;;;;;0.50;0.10;;;17.30;82.30;;;;;;4861652;28;94302;-76
2023/04/29 05:54:38;;;;;;;0.85;0.10;;;17.30;82.50;;;;;;4869688;28;94823;-75
2023/04/29 05:57:04;;;;;;;1.88;0.22;;;17.30;82.90;;;;;;4857357;28;94295;-72
2023/04/29 05:59:31;;;;;;;1.38;0.10;;;17.30;82.30;;;;;;4867617;28;95707;-73
2023/04/29 06:01:58;;;;;;;0.95;0.10;;;17.40;82.90;;;;;;4854199;28;94671;-74
2023/04/29 06:04:24;;;;;;;2.20;0.20;;;17.40;83.30;;;;;;4877117;28;93121;-72
2023/04/29 06:06:51;;;;;;;1.92;0.38;;;17.30;83.20;;;;;;4879802;28;92170;-71
2023/04/29 06:09:20;;;;;;;0.60;0.10;;;17.40;83.10;;;;;;4867538;28;95025;-71
2023/04/29 06:11:46;;;;;;;1.40;0.20;;;17.40;83.40;;;;;;4877902;28;96689;-72
2023/04/29 06:14:12;;;;;;;0.65;0.10;;;17.30;83.00;;;;;;4882941;28;92583;-71
2023/04/29 06:16:39;;;;;;;2.72;0.28;;;17.30;83.70;;;;;;4876780;28;93387;-72
2023/04/29 06:19:04;;;;;;;1.25;0.10;;;17.30;84.00;;;;;;4881124;28;94679;-73
2023/04/29 06:21:30;;;;;;;0.70;0.10;;;17.40;83.70;;;;;;4876576;28;93703;-73
2023/04/29 06:23:57;;;;;;;0.50;0.10;;;17.60;83.60;;;;;;4876420;28;92771;-73
2023/04/29 06:26:23;;;;;;;1.65;0.15;;;17.60;83.00;;;;;;4880857;28;92527;-74
2023/04/29 06:28:49;;;;;;;2.00;0.10;;;17.70;82.40;;;;;;4879862;28;93129;-73
2023/04/29 06:31:15;;;;;;;1.23;0.32;;;17.60;82.30;;;;;;4879243;28;92133;-72
2023/04/29 06:33:41;;;;;;;1.00;0.20;;;17.70;82.50;;;;;;4882130;28;92529;-73
2023/04/29 06:36:07;;;;;;;1.30;0.10;;;17.80;82.20;;;;;;4882264;28;91473;-75
2023/04/29 06:38:32;;;;;;;1.25;0.17;;;17.90;80.60;;;;;;4878945;28;92575;-74
2023/04/29 06:40:59;;;;;;;1.25;0.20;;;18.00;79.80;;;;;;4875308;28;93125;-73
2023/04/29 06:43:26;;;;;;;1.23;0.13;;;18.40;79.20;;;;;;4873830;28;93464;-73
2023/04/29 06:45:52;;;;;;;0.93;0.10;;;18.60;77.00;;;;;;4871201;28;92122;-75
2023/04/29 06:48:17;;;;;;;0.77;0.10;;;18.50;77.40;;;;;;4877977;28;93129;-74
2023/04/29 06:50:53;;;;;;;0.60;0.20;;;18.30;77.40;;;;;;4880118;28;93227;-74
2023/04/29 06:53:19;;;;;;;1.83;0.20;;;18.10;78.30;;;;;;4877389;28;93217;-73
2023/04/29 06:55:45;;;;;;;1.05;0.30;;;18.00;78.30;;;;;;4880606;28;92682;-73
2023/04/29 06:58:18;;;;;;;0.70;0.10;;;18.00;77.80;;;;;;4879799;28;92654;-73
2023/04/29 07:00:45;;;;;;;2.33;0.20;;;18.20;78.20;;;;;;4879983;28;92890;-74
2023/04/29 07:03:12;;;;;;;0.82;0.20;;;19.90;74.90;;;;;;4873786;28;93683;-73
2023/04/29 07:05:39;;;;;;;0.90;0.20;;;22.60;68.60;;;;;;4872344;28;94277;-73
2023/04/29 07:08:05;;;;;;;0.93;0.30;;;25.20;60.40;;;;;;4868965;28;96061;-73
2023/04/29 07:10:31;;;;;;;1.00;0.40;;;27.30;56.50;;;;;;4852815;28;94674;-74
2023/04/29 07:12:58;;;;;;;1.77;0.35;;;29.00;53.30;;;;;;4871842;28;92208;-74
2023/04/29 07:15:24;;;;;;;1.55;0.60;;;30.60;48.00;;;;;;4878615;28;92929;-75
2023/04/29 07:17:49;;;;;;;1.15;0.85;;;31.60;46.60;;;;;;4885132;28;93721;-75
2023/04/29 07:20:15;;;;;;;2.40;0.32;;;32.90;44.30;;;;;;4877239;28;92806;-74
2023/04/29 07:22:41;;;;;;;0.77;0.55;;;32.10;43.50;;;;;;4881597;28;92645;-74
2023/04/29 07:25:07;;;;;;;2.20;1.00;;;30.90;46.10;;;;;;4874294;28;92066;-75
2023/04/29 07:27:33;;;;;;;2.92;2.05;;;31.00;45.60;;;;;;4872074;28;94991;-76
2023/04/29 07:30:00;;;;;;;4.40;1.30;;;32.40;45.20;;;;;;4877163;28;93098;-76
2023/04/29 07:32:26;;;;;;;2.58;1.00;;;33.40;43.30;;;;;;4872633;28;93521;-77
2023/04/29 07:34:51;;;;;;;1.13;0.77;;;34.20;42.50;;;;;;4873133;28;93502;-75
2023/04/29 07:37:17;;;;;;;1.98;1.00;;;34.60;41.80;;;;;;4873317;28;92438;-76
2023/04/29 07:39:43;;;;;;;1.65;0.85;;;35.70;40.50;;;;;;4868216;28;93700;-76
2023/04/29 07:42:09;;;;;;;2.20;1.08;;;36.00;39.70;;;;;;4874749;28;92938;-76
2023/04/29 07:44:35;;;;;;;2.88;1.60;;;36.40;37.90;;;;;;4875604;28;92968;-76
2023/04/29 07:47:01;;;;;;;3.40;1.58;;;36.60;37.90;;;;;;4876560;28;92715;-76
2023/04/29 07:49:27;;;;;;;2.17;1.45;;;36.50;38.10;;;;;;4877573;28;94481;-76
2023/04/29 07:51:52;;;;;;;2.78;2.03;;;35.90;38.40;;;;;;4878340;28;92607;-76
2023/04/29 07:54:18;;;;;;;3.47;1.33;;;36.30;39.80;;;;;;4870018;28;92206;-77
2023/04/29 07:56:45;;;;;;;2.35;0.60;;;37.20;38.50;;;;;;4868888;28;93696;-76
2023/04/29 07:59:10;;;;;;;1.80;1.17;;;36.40;37.80;;;;;;4873329;28;93813;-76
2023/04/29 08:01:37;;;;;;;2.53;1.70;;;35.40;39.90;;;;;;4871049;28;94247;-74
2023/04/29 08:04:03;;;;;;;3.95;3.65;;;36.60;40.30;;;;;;4871565;28;94463;-74
2023/04/29 08:06:29;;;;;;;2.33;1.20;;;38.20;38.70;;;;;;4875404;28;92178;-75
2023/04/29 08:08:55;;;;;;;2.78;2.10;;;39.30;37.50;;;;;;4875710;28;93944;-75
2023/04/29 08:11:24;;;;;;;2.35;2.08;;;39.60;37.40;;;;;;4872673;28;92615;-75
2023/04/29 08:13:50;;;;;;;3.70;2.03;;;39.90;37.60;;;;;;4874829;28;92371;-75
2023/04/29 08:16:16;;;;;;;2.83;1.95;;;40.80;36.40;;;;;;4867296;28;93584;-75
2023/04/29 08:18:42;;;;;;;2.28;2.03;;;41.50;35.10;;;;;;4879359;28;93579;-75
2023/04/29 08:21:10;;;;;;;3.00;1.13;;;41.70;35.40;;;;;;4878526;28;95070;-75
2023/04/29 08:23:39;;;;;;;3.25;1.90;;;40.60;34.40;;;;;;4880367;28;92445;-75
2023/04/29 08:26:05;;;;;;;1.65;0.93;;;39.50;35.30;;;;;;4878452;28;94212;-75
2023/04/29 08:28:30;;;;;;;2.28;2.03;;;38.20;37.40;;;;;;4877514;28;94574;-75
2023/04/29 08:30:56;;;;;;;1.95;1.30;;;38.10;38.00;;;;;;4875202;28;92314;-75
2023/04/29 08:33:22;;;;;;;2.28;1.17;;;36.50;39.10;;;;;;4885448;28;92306;-74
2023/04/29 08:35:48;;;;;;;3.28;1.40;;;35.20;39.80;;;;;;4877316;28;92691;-74
2023/04/29 08:38:15;;;;;;;1.70;1.00;;;33.70;41.30;;;;;;4894482;28;92838;-73
2023/04/29 08:40:44;;;;;;;1.42;0.50;;;32.60;43.40;;;;;;4873594;28;93396;-73
2023/04/29 08:43:15;;;;;;;2.13;1.02;;;31.30;44.10;;;;;;4868721;28;94216;-74
2023/04/29 08:45:42;;;;;;;1.27;0.95;;;31.50;46.20;;;;;;4876470;28;93716;-74
2023/04/29 08:48:08;;;;;;;2.97;0.90;;;34.30;43.80;;;;;;4879504;28;94495;-76
2023/04/29 08:50:39;;;;;;;2.95;2.50;;;37.00;40.80;;;;;;4884482;28;92178;-77
2023/04/29 08:53:09;;;;;;;15.48;1.60;;;38.60;39.40;;;;;;4878024;28;92544;-76
2023/04/29 08:55:39;;;;;;;11.50;3.53;;;39.40;38.30;;;;;;4884337;28;92763;-76
2023/04/29 08:58:06;;;;;;;6.35;2.55;;;40.10;37.40;;;;;;4881774;28;93396;-73
2023/04/29 09:00:33;;;;;;;4.47;1.17;;;38.80;36.60;;;;;;4878214;28;93040;-75
2023/04/29 09:03:03;;;;;;;3.78;1.83;;;37.00;38.40;;;;;;4883575;28;94775;-71
2023/04/29 09:05:29;;;;;;;1.60;1.50;;;35.70;39.70;;;;;;4880126;28;93059;-77
2023/04/29 09:07:58;;;;;;;6.47;1.15;;;37.10;39.10;;;;;;4880856;28;92516;-75
2023/04/29 09:10:25;;;;;;;2.92;1.63;;;37.80;38.40;;;;;;4884624;28;93202;-72
2023/04/29 09:12:50;;;;;;;4.35;1.95;;;38.70;37.10;;;;;;4878761;28;92645;-69
2023/04/29 09:15:16;;;;;;;13.05;1.85;;;39.80;36.00;;;;;;4880599;28;92654;-71
2023/04/29 09:17:45;;;;;;;2.95;1.52;;;40.30;35.50;;;;;;4881246;28;93800;-75
2023/04/29 09:20:20;;;;;;;18.85;2.72;;;41.10;35.10;;;;;;4877698;28;92212;-70
2023/04/29 09:22:51;;;;;;;5.25;2.15;;;41.20;34.10;;;;;;4873708;28;92525;-70
2023/04/29 09:25:17;;;;;;;10.25;1.90;;;41.10;33.50;;;;;;4878042;28;92702;-83
2023/04/29 09:27:42;;;;;;;5.63;2.00;;;41.00;35.50;;;;;;4885510;28;92958;-77
2023/04/29 09:30:12;;;;;;;1.45;0.80;;;40.30;33.10;;;;;;4877369;28;92588;-76
2023/04/29 09:32:38;;;;;;;2.30;1.75;;;37.80;36.00;;;;;;4889497;28;92493;-75
2023/04/29 09:35:25;;;;;;;1.23;0.90;;;35.30;38.20;;;;;;4874557;28;94229;-77
2023/04/29 09:37:55;;;;;;;2.85;0.73;;;33.70;40.70;;;;;;4883247;28;93215;-75
2023/04/29 09:40:33;;;;;;;1.40;0.50;;;33.60;40.60;;;;;;4878423;28;92562;-72
2023/04/29 09:43:00;;;;;;;2.20;0.60;;;32.10;42.00;;;;;;4879693;28;92953;-70
2023/04/29 09:45:35;;;;;;;2.22;0.73;;;31.60;43.60;;;;;;4889933;28;93684;-69
2023/04/29 09:48:02;;;;;;;2.60;0.75;;;31.90;42.90;;;;;;4890427;28;92416;-74
2023/04/29 09:50:28;;;;;;;1.30;0.50;;;31.80;43.90;;;;;;4895330;28;92581;-71
2023/04/29 09:52:54;;;;;;;2.22;0.50;;;32.80;42.10;;;;;;4886221;28;91960;-70
2023/04/29 09:55:19;;;;;;;3.28;0.45;;;32.50;41.60;;;;;;4896562;28;92851;-72
2023/04/29 09:57:45;;;;;;;3.08;0.50;;;31.30;43.20;;;;;;4885238;28;92941;-73
2023/04/29 10:00:13;;;;;;;4.32;1.02;;;31.30;44.40;;;;;;4889426;28;93228;-69
2023/04/29 10:02:42;;;;;;;3.33;1.75;;;32.60;42.80;;;;;;4880075;28;92489;-75
2023/04/29 10:05:08;;;;;;;;;;;33.40;41.80;;;;;;4880699;28;93030;-73
2023/04/29 10:07:34;;;;;;;2.55;0.70;;;33.50;41.80;;;;;;4890979;28;92399;-79
2023/04/29 10:10:04;;;;;;;4.30;1.00;;;33.10;41.20;;;;;;4889614;28;92389;-74
2023/04/29 10:12:32;;;;;;;2.03;0.75;;;32.80;43.50;;;;;;4877047;28;94985;-70
2023/04/29 10:15:21;;;;;;;1.13;0.40;;;32.30;43.70;;;;;;4872811;28;92723;-70
2023/04/29 10:18:17;;;;;;;1.25;0.80;;;31.80;44.20;;;;;;4874879;28;93076;-75
2023/04/29 10:20:47;;;;;;;3.38;0.60;;;31.00;46.80;;;;;;4868718;28;92342;-69
2023/04/29 10:23:14;;;;;;;1.30;0.52;;;30.20;44.80;;;;;;4873409;28;92914;-69
2023/04/29 10:25:45;;;;;;;2.03;0.55;;;29.40;46.60;;;;;;4874283;28;94552;-70
2023/04/29 10:28:15;;;;;;;1.58;0.80;;;28.50;48.60;;;;;;4870211;28;93969;-69
2023/04/29 10:30:49;;;;;;;2.15;0.60;;;28.50;49.30;;;;;;4870307;28;92296;-69
2023/04/29 10:33:16;;;;;;;0.80;0.47;;;28.30;51.90;;;;;;4875724;28;92468;-70
2023/04/29 10:35:43;;;;;;;1.00;0.52;;;28.00;48.80;;;;;;4869385;28;93969;-69
2023/04/29 10:38:35;;;;;;;2.70;0.50;;;27.60;50.40;;;;;;4871532;28;92960;-70
2023/04/29 10:41:08;;;;;;;2.03;0.75;;;27.40;51.90;;;;;;4870037;28;94552;-69
2023/04/29 10:43:34;;;;;;;1.50;0.52;;;27.20;50.30;;;;;;4880896;28;93259;-69
2023/04/29 10:46:19;;;;;;;1.30;0.52;;;27.10;52.10;;;;;;4882592;28;92696;-70
2023/04/29 10:49:05;;;;;;;1.98;0.40;;;27.00;52.70;;;;;;4876955;28;93079;-69
2023/04/29 10:51:38;;;;;;;1.90;0.40;;;26.80;52.70;;;;;;4872486;28;93492;-70
2023/04/29 10:54:19;;;;;;;1.55;0.43;;;26.50;51.50;;;;;;4884434;28;94473;-70
2023/04/29 10:56:52;;;;;;;1.00;0.88;;;26.50;51.70;;;;;;4880443;28;93213;-69
2023/04/29 10:59:28;;;;;;;1.38;0.45;;;26.30;51.20;;;;;;4882556;28;93538;-69
2023/04/29 11:01:54;;;;;;;1.67;0.52;;;26.20;55.00;;;;;;4879449;28;94499;-71
2023/04/29 11:04:21;;;;;;;1.00;0.52;;;26.20;54.50;;;;;;4878681;28;92394;-69
2023/04/29 11:06:52;;;;;;;2.30;0.45;;;26.20;52.90;;;;;;4877962;28;92819;-70
2023/04/29 11:09:25;;;;;;;1.60;0.63;;;26.00;53.70;;;;;;4878337;28;92722;-69
2023/04/29 11:12:02;;;;;;;0.98;0.32;;;26.10;54.80;;;;;;4879465;28;92692;-70
2023/04/29 11:14:49;;;;;;;1.85;0.30;;;26.20;55.40;;;;;;4881203;28;94320;-69
2023/04/29 11:17:19;;;;;;;1.05;0.30;;;26.10;52.20;;;;;;4877726;28;94237;-70
2023/04/29 11:19:48;;;;;;;1.15;0.35;;;25.90;53.70;;;;;;4876676;28;93082;-69
2023/04/29 11:22:23;;;;;;;;;;;25.60;55.20;;;;;;4881245;28;92604;-69
2023/04/29 11:24:49;;;;;;;1.20;0.40;;;25.50;54.80;;;;;;4881608;28;91983;-71
2023/04/29 11:27:15;;;;;;;0.90;0.43;;;25.20;53.40;;;;;;4879737;28;93808;-69
2023/04/29 11:29:41;;;;;;;1.10;0.50;;;25.10;54.20;;;;;;4864440;28;94331;-72
2023/04/29 11:32:07;;;;;;;1.48;0.28;;;25.00;54.30;;;;;;4878102;28;92014;-69
2023/04/29 11:34:33;;;;;;;1.40;0.30;;;24.80;54.80;;;;;;4873587;28;91786;-69
2023/04/29 11:36:59;;;;;;;2.05;0.35;;;25.00;57.40;;;;;;4856915;28;93796;-70
2023/04/29 11:39:26;;;;;;;1.15;0.47;;;25.20;56.20;;;;;;4879882;28;93387;-71
2023/04/29 11:42:05;;;;;;;1.00;0.30;;;25.20;54.80;;;;;;4861728;28;93514;-70
2023/04/29 11:44:34;;;;;;;1.35;0.47;;;25.00;54.10;;;;;;4876670;28;92693;-71
2023/04/29 11:47:06;;;;;;;1.27;0.32;;;25.00;54.20;;;;;;4877192;28;93577;-70
2023/04/29 11:49:33;;;;;;;1.38;0.28;;;24.70;54.20;;;;;;4878484;28;93404;-71
2023/04/29 11:52:00;;;;;;;1.42;0.20;;;24.40;55.30;;;;;;4877921;28;93822;-71
2023/04/29 11:54:27;;;;;;;1.08;0.38;;;24.20;55.30;;;;;;4880371;28;92536;-70
2023/04/29 11:56:57;;;;;;;0.88;0.30;;;24.30;55.00;;;;;;4876079;28;93223;-71
2023/04/29 11:59:23;;;;;;;0.85;0.30;;;24.50;54.70;;;;;;4880758;28;93346;-72
2023/04/29 12:01:50;;;;;;;0.68;0.30;;;24.90;54.80;;;;;;4876955;28;94104;-72
2023/04/29 12:04:16;;;;;;;2.05;0.40;;;25.00;53.60;;;;;;4874892;28;92155;-71
2023/04/29 12:06:42;;;;;;;1.10;0.20;;;25.00;53.60;;;;;;4875881;28;93694;-71
2023/04/29 12:09:09;;;;;;;1.20;0.40;;;25.10;53.40;;;;;;4879443;28;94286;-71
2023/04/29 12:11:36;;;;;;;1.80;0.13;;;25.10;52.80;;;;;;4883465;28;92184;-71
2023/04/29 12:14:05;;;;;;;1.52;0.40;;;24.90;53.50;;;;;;4882327;28;92393;-71
2023/04/29 12:16:31;;;;;;;1.58;0.32;;;24.90;53.30;;;;;;4880045;28;93118;-71
2023/04/29 12:18:58;;;;;;;1.52;0.30;;;24.90;53.60;;;;;;4880476;28;92544;-71
2023/04/29 12:21:25;;;;;;;0.75;0.22;;;24.80;56.00;;;;;;4881699;28;92105;-71
2023/04/29 12:23:51;;;;;;;1.20;0.25;;;24.90;55.10;;;;;;4871984;28;91570;-71
2023/04/29 12:26:19;;;;;;;0.88;0.45;;;25.00;52.10;;;;;;4875873;28;93353;-71
2023/04/29 12:28:45;;;;;;;2.28;0.25;;;24.70;52.40;;;;;;4878226;28;93327;-71
2023/04/29 12:31:14;;;;;;;1.88;0.38;;;24.40;53.00;;;;;;4885944;28;92989;-72
2023/04/29 12:33:45;;;;;;;1.50;0.22;;;24.50;54.00;;;;;;4879639;28;92633;-71
2023/04/29 12:36:18;;;;;;;0.93;0.20;;;24.80;54.60;;;;;;4879784;28;93148;-71
2023/04/29 12:38:46;;;;;;;1.50;0.35;;;25.20;53.10;;;;;;4880991;28;92779;-71
2023/04/29 12:41:16;;;;;;;2.20;0.20;;;25.30;51.80;;;;;;4880484;28;92568;-72
2023/04/29 12:43:42;;;;;;;2.40;0.22;;;25.30;54.10;;;;;;4867662;28;92088;-71
2023/04/29 12:46:09;;;;;;;1.33;0.50;;;25.40;54.30;;;;;;4880418;28;93524;-71
2023/04/29 12:48:42;;;;;;;2.13;0.50;;;25.50;51.90;;;;;;4868984;28;92389;-72
2023/04/29 12:51:11;;;;;;;1.83;0.50;;;25.30;52.70;;;;;;4881563;28;92125;-71
2023/04/29 12:53:37;;;;;;;1.23;0.30;;;25.20;51.30;;;;;;4877716;28;92622;-72
2023/04/29 12:56:04;;;;;;;0.65;0.20;;;25.10;52.80;;;;;;4880051;28;93414;-72
2023/04/29 12:58:31;;;;;;;2.72;0.20;;;25.30;56.10;;;;;;4869655;28;94189;-72
2023/04/29 13:00:56;;;;;;;1.02;0.20;;;25.30;53.50;;;;;;4879751;28;92482;-72
2023/04/29 13:03:22;;;;;;;0.93;0.20;;;25.20;52.70;;;;;;4881077;28;92619;-72
2023/04/29 13:05:51;;;;;;;1.90;0.30;;;25.30;55.80;;;;;;4879932;28;92973;-72
2023/04/29 13:08:17;;;;;;;1.40;0.38;;;25.10;55.00;;;;;;4883727;28;92452;-72
2023/04/29 13:10:43;;;;;;;0.95;0.32;;;25.40;54.60;;;;;;4890457;28;92301;-72
2023/04/29 13:13:09;;;;;;;1.80;0.20;;;25.60;53.50;;;;;;4886854;28;91658;-72
2023/04/29 13:15:37;;;;;;;1.67;0.30;;;25.50;53.70;;;;;;4881148;28;93818;-72
2023/04/29 13:18:03;;;;;;;1.13;0.30;;;25.20;54.40;;;;;;4882993;28;92953;-72
2023/04/29 13:20:28;;;;;;;1.27;0.40;;;25.20;54.50;;;;;;4883708;28;93468;-72
2023/04/29 13:22:54;;;;;;;0.70;0.40;;;25.10;53.40;;;;;;4884544;28;92642;-72
2023/04/29 13:25:20;;;;;;;2.78;0.20;;;24.80;52.50;;;;;;4883118;28;92789;-72
2023/04/29 13:27:46;;;;;;;2.40;0.20;;;24.60;54.20;;;;;;4874568;28;92773;-72
2023/04/29 13:30:12;;;;;;;1.63;0.15;;;24.30;55.70;;;;;;4884519;28;92470;-72
2023/04/29 13:32:38;;;;;;;1.08;0.20;;;24.10;54.50;;;;;;4883161;28;92146;-72
2023/04/29 13:35:06;;;;;;;1.30;0.20;;;23.80;55.90;;;;;;4881977;28;94295;-72
2023/04/29 13:37:32;;;;;;;1.40;0.32;;;23.70;57.70;;;;;;4882532;28;95127;-72
2023/04/29 13:39:57;;;;;;;0.82;0.13;;;23.60;57.80;;;;;;4883796;28;92535;-72
2023/04/29 13:42:23;;;;;;;1.15;0.73;;;23.60;56.60;;;;;;4883389;28;92515;-72
2023/04/29 13:44:49;;;;;;;5.97;1.75;;;23.80;57.40;;;;;;4880631;28;94669;-72
2023/04/29 13:47:15;;;;;;;1.67;0.30;;;24.00;55.00;;;;;;4880693;28;93832;-71
2023/04/29 13:49:45;;;;;;;0.75;0.32;;;24.30;53.90;;;;;;4882637;28;92669;-72
2023/04/29 13:52:11;;;;;;;1.15;0.55;;;24.40;53.50;;;;;;4884015;28;92451;-72
2023/04/29 13:54:37;;;;;;;1.00;0.20;;;24.50;54.50;;;;;;4885427;28;93150;-72
2023/04/29 13:57:04;;;;;;;0.85;0.20;;;24.70;53.70;;;;;;4884604;28;94039;-72
2023/04/29 13:59:33;;;;;;;1.55;0.22;;;24.80;54.00;;;;;;4886124;28;92158;-72
2023/04/29 14:01:58;;;;;;;;;;;25.10;52.80;;;;;;4881168;28;92906;-72
2023/04/29 14:04:25;;;;;;;1.30;0.20;;;25.10;51.70;;;;;;4884479;28;93039;-72
2023/04/29 14:06:51;;;;;;;0.50;0.20;;;25.20;53.20;;;;;;4880505;28;94547;-72
2023/04/29 14:09:18;;;;;;;3.00;0.20;;;25.30;53.80;;;;;;4883451;28;93008;-72
2023/04/29 14:11:45;;;;;;;2.17;0.30;;;25.30;52.70;;;;;;4887727;28;92116;-72
2023/04/29 14:14:10;;;;;;;1.23;0.20;;;25.00;51.50;;;;;;4883422;28;93806;-72
2023/04/29 14:16:36;;;;;;;0.93;0.20;;;24.90;52.40;;;;;;4881416;28;92515;-72
2023/04/29 14:19:02;;;;;;;0.90;0.10;;;24.50;51.10;;;;;;4882113;28;92513;-72
2023/04/29 14:21:28;;;;;;;2.83;0.35;;;24.40;51.50;;;;;;4882277;28;91980;-71
2023/04/29 14:23:54;;;;;;;1.17;0.20;;;24.30;50.80;;;;;;4881182;28;92953;-72
2023/04/29 14:26:20;;;;;;;1.15;0.30;;;24.30;53.00;;;;;;4882036;28;92902;-72
2023/04/29 14:28:46;;;;;;;2.30;0.20;;;24.40;54.30;;;;;;4883488;28;92381;-72
2023/04/29 14:31:12;;;;;;;1.65;0.22;;;24.30;53.50;;;;;;4880958;28;92970;-72
2023/04/29 14:33:39;;;;;;;1.45;0.20;;;24.40;53.20;;;;;;4882553;28;93658;-72
2023/04/29 14:36:06;;;;;;;0.98;0.20;;;24.40;52.60;;;;;;4879198;28;93853;-71
2023/04/29 14:38:32;;;;;;;1.42;0.22;;;24.40;53.80;;;;;;4870134;28;92522;-72
2023/04/29 14:40:57;;;;;;;0.52;0.20;;;24.30;54.70;;;;;;4883284;28;92880;-71
2023/04/29 14:43:23;;;;;;;0.98;0.20;;;24.00;54.90;;;;;;4881035;28;93647;-71
2023/04/29 14:45:49;;;;;;;1.92;0.40;;;24.00;56.80;;;;;;4880465;28;93820;-71
2023/04/29 14:48:15;;;;;;;1.33;0.20;;;23.80;54.50;;;;;;4870772;28;92045;-71
2023/04/29 14:50:40;;;;;;;0.90;0.22;;;23.80;55.00;;;;;;4883794;28;91619;-71
2023/04/29 14:53:07;;;;;;;1.42;0.22;;;23.80;56.00;;;;;;4877599;28;93410;-71
2023/04/29 14:55:33;;;;;;;0.80;0.13;;;23.70;56.10;;;;;;4882590;28;92965;-71
2023/04/29 14:57:58;;;;;;;2.13;0.20;;;23.60;57.50;;;;;;4875315;28;93108;-71
2023/04/29 15:00:24;;;;;;;2.20;0.30;;;23.50;56.80;;;;;;4880897;28;93028;-71
2023/04/29 15:02:52;;;;;;;2.00;0.32;;;23.30;57.10;;;;;;4881873;28;93440;-71
2023/04/29 15:05:17;;;;;;;0.90;0.25;;;23.40;56.20;;;;;;4882720;28;94050;-71
2023/04/29 15:07:43;;;;;;;3.13;0.30;;;23.50;56.80;;;;;;4882031;28;92480;-72
2023/04/29 15:10:09;;;;;;;1.20;0.30;;;23.50;58.20;;;;;;4881313;28;93196;-71
2023/04/29 15:12:35;;;;;;;1.15;0.20;;;23.50;57.70;;;;;;4883605;28;92575;-72
2023/04/29 15:15:01;;;;;;;2.42;0.40;;;23.50;56.00;;;;;;4882336;28;92743;-71
2023/04/29 15:17:27;;;;;;;0.85;0.20;;;23.30;56.20;;;;;;4880500;28;92436;-71
2023/04/29 15:19:53;;;;;;;1.33;0.43;;;23.40;54.80;;;;;;4882588;28;92234;-71
2023/04/29 15:22:18;;;;;;;2.05;0.22;;;23.40;55.40;;;;;;4881629;28;94071;-71
2023/04/29 15:24:44;;;;;;;0.65;0.20;;;23.30;55.60;;;;;;4881578;28;93860;-71
2023/04/29 15:27:10;;;;;;;0.65;0.20;;;23.40;55.50;;;;;;4875683;28;93989;-71
2023/04/29 15:29:37;;;;;;;2.25;0.30;;;23.40;56.00;;;;;;4882308;28;93142;-71
2023/04/29 15:32:03;;;;;;;0.82;0.35;;;23.40;54.50;;;;;;4879787;28;93553;-71
2023/04/29 15:34:28;;;;;;;0.88;0.20;;;23.40;54.00;;;;;;4882068;28;92694;-71
2023/04/29 15:36:55;;;;;;;1.02;0.22;;;23.30;52.80;;;;;;4881640;28;92290;-72
2023/04/29 15:39:21;;;;;;;0.60;0.20;;;23.30;55.10;;;;;;4883196;28;91373;-71
2023/04/29 15:41:47;;;;;;;1.15;0.13;;;23.30;53.30;;;;;;4882052;28;94632;-71
2023/04/29 15:44:12;;;;;;;1.92;0.30;;;23.20;54.90;;;;;;4877798;28;92808;-71
2023/04/29 15:46:38;;;;;;;3.13;0.30;;;23.00;53.50;;;;;;4879939;28;93815;-71
2023/04/29 15:49:05;;;;;;;1.05;0.30;;;22.90;52.50;;;;;;4881773;28;93855;-71